createdAt,value
2018-11-13T00:03:26.144Z,97.50
2018-11-13T00:08:29.359Z,97.50
2018-11-13T00:13:32.628Z,97.50
2018-11-13T00:18:35.860Z,97.50
2018-11-13T00:23:39.108Z,97.40
2018-11-13T00:28:43.121Z,97.40
2018-11-13T00:33:46.382Z,97.30
2018-11-13T00:38:49.733Z,97.50
2018-11-13T00:43:53.012Z,97.40
2018-11-13T00:48:56.240Z,97.60
2018-11-13T00:53:59.492Z,97.40
2018-11-13T00:59:02.717Z,97.40
2018-11-13T01:04:06.732Z,97.50
2018-11-13T01:09:10.415Z,97.60
2018-11-13T01:14:13.651Z,97.30
2018-11-13T01:19:16.907Z,97.40
2018-11-13T01:24:20.150Z,97.40
2018-11-13T01:29:23.410Z,97.50
2018-11-13T01:34:26.684Z,97.50
2018-11-13T01:39:29.939Z,97.40
2018-11-13T01:44:33.186Z,97.50
2018-11-13T01:49:36.800Z,97.30
2018-11-13T01:54:40.040Z,97.50
2018-11-13T01:59:43.296Z,97.60
2018-11-13T02:04:46.555Z,97.50
2018-11-13T02:09:49.791Z,97.40
2018-11-13T02:14:53.456Z,97.40
2018-11-13T02:19:56.634Z,97.40
2018-11-13T02:24:59.907Z,97.40
2018-11-13T02:30:03.180Z,97.40
2018-11-13T02:35:07.241Z,97.30
2018-11-13T02:40:10.519Z,97.30
2018-11-13T02:45:15.330Z,97.10
2018-11-13T02:50:19.755Z,97.10
2018-11-13T02:55:23.069Z,97.20
2018-11-13T03:00:26.340Z,97.20
2018-11-13T03:05:29.589Z,97.30
2018-11-13T03:10:32.793Z,97.20
2018-11-13T03:15:36.040Z,97.30
2018-11-13T03:20:39.285Z,97.30
2018-11-13T03:25:43.384Z,97.40
2018-11-13T03:30:47.331Z,97.30
2018-11-13T03:35:50.486Z,97.30
2018-11-13T03:40:54.685Z,97.30
2018-11-13T03:45:58.533Z,97.40
2018-11-13T03:51:02.303Z,97.50
2018-11-13T03:56:06.146Z,97.30
2018-11-13T04:01:09.369Z,97.30
2018-11-13T04:06:12.614Z,97.50
2018-11-13T04:11:16.825Z,97.60
2018-11-13T04:16:20.061Z,97.30
2018-11-13T04:21:23.289Z,97.40
2018-11-13T04:26:26.523Z,97.40
2018-11-13T04:31:29.769Z,97.10
2018-11-13T04:36:32.997Z,97.30
2018-11-13T04:41:37.040Z,97.30
2018-11-13T04:46:40.304Z,97.50
2018-11-13T04:51:43.606Z,97.40
2018-11-13T04:56:46.758Z,97.40
2018-11-13T05:01:49.917Z,97.50
2018-11-13T05:06:53.020Z,97.50
2018-11-13T05:11:56.127Z,97.40
2018-11-13T05:16:59.900Z,97.30
2018-11-13T05:22:03.165Z,97.30
2018-11-13T05:27:06.396Z,97.40
2018-11-13T05:32:09.630Z,97.30
2018-11-13T05:37:12.876Z,97.60
2018-11-13T05:42:16.133Z,97.20
2018-11-13T05:47:19.568Z,97.40
2018-11-13T05:52:23.419Z,97.40
2018-11-13T05:57:26.674Z,97.10
2018-11-13T06:02:30.925Z,97.30
2018-11-13T06:07:34.176Z,97.30
2018-11-13T06:12:37.379Z,97.30
2018-11-13T06:17:40.625Z,97.50
2018-11-13T06:22:43.966Z,97.40
2018-11-13T06:27:48.123Z,97.30
2018-11-13T06:32:51.564Z,97.40
2018-11-13T06:37:54.812Z,97.20
2018-11-13T06:42:58.050Z,97.10
2018-11-13T06:48:01.307Z,97.40
2018-11-13T06:53:04.612Z,97.10
2018-11-13T06:58:07.855Z,97.10
2018-11-13T07:03:11.111Z,97.20
2018-11-13T07:08:14.943Z,97.20
2018-11-13T07:13:19.112Z,97.30
2018-11-13T07:18:23.084Z,97.30
2018-11-13T07:23:26.271Z,97.20
2018-11-13T07:28:29.520Z,97.30
2018-11-13T07:33:32.752Z,97.30
2018-11-13T07:38:36.548Z,97.40
2018-11-13T07:43:39.799Z,97.50
2018-11-13T07:48:43.040Z,97.10
2018-11-13T07:53:47.475Z,97.30
2018-11-13T07:58:50.714Z,97.30
2018-11-13T08:03:53.983Z,97.50
2018-11-13T08:08:57.225Z,97.40
2018-11-13T08:14:00.463Z,97.20
2018-11-13T08:19:03.705Z,97.40
2018-11-13T08:24:07.036Z,97.30
2018-11-13T08:29:10.325Z,97.30
2018-11-13T08:34:13.541Z,97.30
2018-11-13T08:39:16.764Z,97.30
2018-11-13T08:44:20.847Z,97.30
2018-11-13T08:49:24.000Z,97.20
2018-11-13T08:54:27.260Z,97.10
2018-11-13T08:59:30.565Z,97.30
2018-11-13T09:04:33.729Z,97.20
2018-11-13T09:09:37.001Z,97.10
2018-11-13T09:14:40.262Z,97.10
2018-11-13T09:19:44.239Z,97.20
2018-11-13T09:24:47.436Z,97.20
2018-11-13T09:29:50.802Z,97.20
2018-11-13T09:34:53.899Z,97.00
2018-11-13T09:39:57.161Z,97.10
2018-11-13T09:45:00.421Z,97.10
2018-11-13T09:50:03.898Z,97.10
2018-11-13T09:55:08.968Z,97.20
2018-11-13T10:00:17.491Z,97.10
2018-11-13T10:05:21.153Z,97.20
2018-11-13T10:10:24.921Z,97.20
2018-11-13T10:15:29.380Z,97.10
2018-11-13T10:20:32.576Z,97.30
2018-11-13T10:25:35.779Z,97.00
2018-11-13T10:30:38.981Z,97.00
2018-11-13T10:35:45.651Z,97.00
2018-11-13T10:40:49.046Z,97.10
2018-11-13T10:45:52.724Z,97.00
2018-11-13T10:50:55.941Z,97.10
2018-11-13T10:55:59.129Z,97.00
2018-11-13T11:01:07.756Z,97.10
2018-11-13T11:06:11.012Z,97.00
2018-11-13T11:11:14.251Z,97.00
2018-11-13T11:16:17.552Z,96.90
2018-11-13T11:21:20.787Z,97.20
2018-11-13T11:26:24.062Z,97.20
2018-11-13T11:31:27.349Z,97.10
2018-11-13T11:36:30.628Z,97.10
2018-11-13T11:41:33.993Z,97.20
2018-11-13T11:46:38.278Z,97.10
2018-11-13T11:51:41.530Z,97.00
2018-11-13T11:56:44.768Z,97.00
2018-11-13T12:01:48.136Z,97.00
2018-11-13T12:06:51.377Z,97.10
2018-11-13T12:11:54.628Z,97.10
2018-11-13T12:16:58.863Z,97.10
2018-11-13T12:22:02.114Z,97.10
2018-11-13T12:27:05.892Z,97.00
2018-11-13T12:32:09.891Z,97.00
2018-11-13T12:37:13.798Z,97.00
2018-11-13T12:42:17.068Z,96.90
2018-11-13T12:47:20.322Z,96.90
2018-11-13T12:52:24.273Z,97.00
2018-11-13T12:57:27.480Z,96.90
2018-11-13T13:02:30.709Z,96.90
2018-11-13T13:07:33.890Z,97.00
2018-11-13T13:12:36.963Z,97.00
2018-11-13T13:17:40.405Z,96.90
2018-11-13T13:22:44.258Z,97.00
2018-11-13T13:27:47.388Z,97.00
2018-11-13T13:32:50.826Z,96.90
2018-11-13T13:37:54.116Z,96.80
2018-11-13T13:42:58.038Z,96.90
2018-11-13T13:48:02.030Z,96.80
2018-11-13T13:53:06.408Z,97.00
2018-11-13T13:58:10.024Z,97.00
2018-11-13T14:03:13.784Z,96.90
2018-11-13T14:08:17.580Z,97.00
2018-11-13T14:13:20.821Z,97.10
2018-11-13T14:18:24.081Z,97.10
2018-11-13T14:23:28.230Z,97.30
2018-11-13T14:28:31.473Z,97.20
2018-11-13T14:33:35.403Z,97.20
2018-11-13T14:38:38.510Z,97.30
2018-11-13T14:43:41.761Z,97.70
2018-11-13T14:48:45.951Z,97.80
2018-11-13T14:53:49.198Z,97.70
2018-11-13T14:58:52.440Z,97.80
2018-11-13T15:03:55.692Z,97.70
2018-11-13T15:08:59.777Z,97.80
2018-11-13T15:14:03.096Z,97.90
2018-11-13T15:19:06.350Z,98.00
2018-11-13T15:24:09.620Z,97.90
2018-11-13T15:29:12.862Z,97.90
2018-11-13T15:34:16.113Z,97.80
2018-11-13T15:39:19.391Z,97.70
2018-11-13T15:44:23.546Z,97.40
2018-11-13T15:49:26.920Z,97.50
2018-11-13T15:54:30.168Z,97.40
2018-11-13T15:59:37.821Z,97.40
2018-11-13T16:04:41.078Z,97.30
2018-11-13T16:09:44.879Z,97.40
2018-11-13T16:14:48.133Z,97.20
2018-11-13T16:19:51.545Z,97.20
2018-11-13T16:24:54.813Z,97.00
2018-11-13T16:29:58.099Z,97.00
2018-11-13T16:35:01.305Z,97.10
2018-11-13T16:40:05.798Z,97.10
2018-11-13T16:45:10.932Z,97.30
2018-11-13T16:50:21.938Z,97.20
2018-11-13T16:55:30.565Z,97.30
2018-11-13T17:00:33.851Z,97.60
2018-11-13T17:05:37.154Z,97.90
2018-11-13T17:10:41.484Z,97.90
2018-11-13T17:15:44.743Z,97.70
2018-11-13T17:20:47.976Z,97.50
2018-11-13T17:25:51.327Z,97.50
2018-11-13T17:30:54.504Z,97.40
2018-11-13T17:35:57.786Z,97.10
2018-11-13T17:41:01.049Z,97.20
2018-11-13T17:46:04.323Z,97.70
2018-11-13T17:51:07.571Z,97.80
2018-11-13T17:56:10.795Z,97.30
2018-11-13T18:01:14.046Z,97.40
2018-11-13T18:06:17.300Z,97.80
2018-11-13T18:11:20.574Z,97.20
2018-11-13T18:16:23.807Z,97.10
2018-11-13T18:21:27.124Z,97.20
2018-11-13T18:26:31.273Z,97.00
2018-11-13T18:31:35.429Z,97.00
2018-11-13T18:36:38.689Z,96.80
2018-11-13T18:41:41.967Z,96.60
2018-11-13T18:46:45.265Z,96.60
2018-11-13T18:51:48.527Z,96.40
2018-11-13T18:56:51.770Z,96.50
2018-11-13T19:01:55.150Z,96.50
2018-11-13T19:06:58.456Z,96.50
2018-11-13T19:12:01.750Z,96.40
2018-11-13T19:17:05.894Z,96.20
2018-11-13T19:22:09.126Z,96.40
2018-11-13T19:27:12.396Z,96.40
2018-11-13T19:32:15.662Z,96.40
2018-11-13T19:37:19.354Z,96.20
2018-11-13T19:42:22.967Z,96.30
2018-11-13T19:47:26.204Z,96.30
2018-11-13T19:52:30.025Z,96.20
2018-11-13T19:57:33.336Z,96.40
2018-11-13T20:02:36.977Z,96.50
2018-11-13T20:07:40.240Z,96.60
2018-11-13T20:12:43.936Z,96.60
2018-11-13T20:17:47.212Z,96.70
2018-11-13T20:22:51.233Z,96.70
2018-11-13T20:27:54.508Z,96.70
2018-11-13T20:32:57.814Z,96.70
2018-11-13T20:38:01.442Z,96.70
2018-11-13T20:43:06.254Z,96.70
2018-11-13T20:48:10.044Z,96.70
2018-11-13T20:53:13.302Z,96.60
2018-11-13T20:58:16.572Z,96.70
2018-11-13T21:03:19.820Z,96.60
2018-11-13T21:08:24.034Z,96.60
2018-11-13T21:13:27.320Z,96.50
2018-11-13T21:18:30.582Z,96.60
2018-11-13T21:23:33.954Z,96.50
2018-11-13T21:28:37.235Z,96.30
2018-11-13T21:33:40.437Z,96.30
2018-11-13T21:38:43.687Z,96.40
2018-11-13T21:43:46.950Z,96.30
2018-11-13T21:48:50.878Z,96.30
2018-11-13T21:53:54.751Z,96.30
2018-11-13T21:58:57.996Z,96.20
2018-11-13T22:04:01.239Z,96.20
2018-11-13T22:09:06.580Z,96.20
2018-11-13T22:14:09.836Z,96.20
2018-11-13T22:19:13.079Z,96.10
2018-11-13T22:24:16.365Z,96.20
2018-11-13T22:34:23.367Z,96.30
2018-11-13T22:39:26.632Z,96.50
2018-11-13T22:44:29.896Z,96.60
2018-11-13T22:49:33.138Z,96.80
2018-11-13T22:54:36.372Z,96.70
2018-11-13T22:59:39.577Z,96.80
2018-11-13T23:04:43.883Z,96.70
2018-11-13T23:09:47.664Z,96.70
2018-11-13T23:14:52.153Z,96.70
2018-11-13T23:19:55.298Z,96.70
2018-11-13T23:24:58.609Z,96.80
2018-11-13T23:30:01.839Z,96.80
2018-11-13T23:35:07.573Z,96.70
2018-11-13T23:40:16.027Z,96.90
2018-11-13T23:45:23.140Z,96.80
2018-11-13T23:50:27.396Z,96.70
2018-11-13T23:55:30.672Z,96.70
